createdAt,value
2023-02-16T00:01:52.368Z,-3.14
2023-02-16T00:04:23.198Z,-3.15
2023-02-16T00:06:57.473Z,-3.20
2023-02-16T00:09:27.689Z,-3.22
2023-02-16T00:12:13.835Z,-3.25
2023-02-16T00:14:42.588Z,-3.26
2023-02-16T00:17:12.643Z,-3.21
2023-02-16T00:19:43.704Z,-3.15
2023-02-16T00:22:15.696Z,-3.18
2023-02-16T00:24:51.375Z,-3.18
2023-02-16T00:27:20.192Z,-3.27
2023-02-16T00:29:50.434Z,-3.33
2023-02-16T00:32:19.820Z,-3.35
2023-02-16T00:34:49.376Z,-3.34
2023-02-16T00:37:19.208Z,-3.27
2023-02-16T00:39:47.704Z,-3.21
2023-02-16T00:42:21.196Z,-3.18
2023-02-16T00:44:51.153Z,-2.97
2023-02-16T00:50:32.999Z,-2.84
2023-02-16T00:53:03.692Z,-2.97
2023-02-16T00:55:37.310Z,-2.88
2023-02-16T00:58:08.921Z,-2.87
2023-02-16T01:00:39.741Z,-3.05
2023-02-16T01:03:16.076Z,-3.16
2023-02-16T01:05:46.851Z,-3.21
2023-02-16T01:08:36.840Z,-3.14
2023-02-16T01:11:11.409Z,-3.16
2023-02-16T01:13:47.089Z,-3.12
2023-02-16T01:16:19.526Z,-3.16
2023-02-16T01:18:49.489Z,-3.17
2023-02-16T01:21:21.982Z,-3.15
2023-02-16T01:23:53.033Z,-3.23
2023-02-16T01:26:23.086Z,-3.22
2023-02-16T01:28:52.667Z,-3.27
2023-02-16T01:31:23.892Z,-3.27
2023-02-16T01:33:52.664Z,-3.31
2023-02-16T01:36:27.107Z,-3.39
2023-02-16T01:39:00.430Z,-3.53
2023-02-16T01:41:45.995Z,-3.52
2023-02-16T01:44:17.982Z,-3.57
2023-02-16T01:46:53.150Z,-3.51
2023-02-16T01:49:23.437Z,-3.50
2023-02-16T01:51:58.748Z,-3.39
2023-02-16T01:54:49.809Z,-3.24
2023-02-16T01:57:28.685Z,-3.23
2023-02-16T02:00:26.775Z,-3.15
2023-02-16T02:03:17.189Z,-3.29
2023-02-16T02:05:44.632Z,-3.21
2023-02-16T02:08:29.560Z,-3.23
2023-02-16T02:11:07.042Z,-3.35
2023-02-16T02:13:40.480Z,-3.40
2023-02-16T02:16:35.063Z,-3.48
2023-02-16T02:19:06.199Z,-3.56
2023-02-16T02:22:15.033Z,-3.57
2023-02-16T02:25:12.483Z,-3.52
2023-02-16T02:27:46.892Z,-3.35
2023-02-16T02:30:33.969Z,-3.31
2023-02-16T02:33:22.558Z,-3.46
2023-02-16T02:35:59.205Z,-3.62
2023-02-16T02:38:35.832Z,-3.67
2023-02-16T02:41:10.495Z,-3.70
2023-02-16T02:43:43.847Z,-3.70
2023-02-16T02:46:16.125Z,-3.82
2023-02-16T02:48:52.682Z,-3.48
2023-02-16T02:51:29.974Z,-3.50
2023-02-16T02:54:24.145Z,-3.42
2023-02-16T02:57:18.134Z,-3.41
2023-02-16T03:00:14.822Z,-3.31
2023-02-16T03:02:45.861Z,-3.41
2023-02-16T03:05:17.571Z,-3.37
2023-02-16T03:07:48.621Z,-3.53
2023-02-16T03:10:42.962Z,-3.64
2023-02-16T03:13:41.594Z,-3.73
2023-02-16T03:16:15.493Z,-3.61
2023-02-16T03:19:04.522Z,-3.54
2023-02-16T03:21:51.648Z,-3.50
2023-02-16T03:24:42.538Z,-3.64
2023-02-16T03:27:28.617Z,-3.71
2023-02-16T03:30:00.928Z,-3.79
2023-02-16T03:32:30.860Z,-3.85
2023-02-16T03:35:07.144Z,-3.87
2023-02-16T03:37:36.168Z,-3.85
2023-02-16T03:40:25.278Z,-3.69
2023-02-16T03:42:53.891Z,-3.74
2023-02-16T03:45:27.695Z,-3.82
2023-02-16T03:47:58.215Z,-3.79
2023-02-16T03:50:27.586Z,-3.64
2023-02-16T03:53:07.003Z,-3.53
2023-02-16T03:55:36.822Z,-3.71
2023-02-16T03:58:05.536Z,-3.72
2023-02-16T04:00:38.294Z,-3.63
2023-02-16T04:03:09.632Z,-3.41
2023-02-16T04:05:38.743Z,-3.43
2023-02-16T04:08:10.091Z,-3.59
2023-02-16T04:10:39.250Z,-3.75
2023-02-16T04:13:07.499Z,-3.84
2023-02-16T04:15:36.558Z,-3.87
2023-02-16T04:18:07.104Z,-3.87
2023-02-16T04:20:36.844Z,-3.98
2023-02-16T04:23:05.250Z,-4.01
2023-02-16T04:25:33.649Z,-4.04
2023-02-16T04:28:02.716Z,-3.98
2023-02-16T04:30:32.732Z,-3.99
2023-02-16T04:33:02.836Z,-4.06
2023-02-16T04:35:32.611Z,-4.16
2023-02-16T04:38:01.945Z,-4.23
2023-02-16T04:40:31.064Z,-4.25
2023-02-16T04:43:00.894Z,-4.22
2023-02-16T04:45:29.498Z,-4.21
2023-02-16T04:47:58.086Z,-4.26
2023-02-16T04:50:26.604Z,-4.35
2023-02-16T04:52:56.330Z,-4.37
2023-02-16T04:55:25.050Z,-4.38
2023-02-16T04:57:53.675Z,-4.39
2023-02-16T05:00:23.204Z,-4.45
2023-02-16T05:02:52.069Z,-4.48
2023-02-16T05:05:20.650Z,-4.49
2023-02-16T05:07:50.739Z,-4.52
2023-02-16T05:10:20.806Z,-4.58
2023-02-16T05:13:06.951Z,-4.54
2023-02-16T05:15:36.901Z,-4.59
2023-02-16T05:18:05.607Z,-4.64
2023-02-16T05:20:50.891Z,-4.70
2023-02-16T05:23:19.430Z,-4.76
2023-02-16T05:25:49.713Z,-4.80
2023-02-16T05:28:19.098Z,-4.69
2023-02-16T05:30:47.923Z,-4.70
2023-02-16T05:33:16.546Z,-4.72
2023-02-16T05:35:45.573Z,-4.78
2023-02-16T05:38:15.434Z,-4.80
2023-02-16T05:40:44.554Z,-4.81
2023-02-16T05:43:20.721Z,-4.79
2023-02-16T05:45:53.055Z,-4.83
2023-02-16T05:48:21.683Z,-4.88
2023-02-16T05:50:50.188Z,-4.90
2023-02-16T05:53:18.482Z,-4.85
2023-02-16T05:55:47.112Z,-4.87
2023-02-16T05:58:15.875Z,-4.85
2023-02-16T06:00:48.606Z,-4.88
2023-02-16T06:03:17.564Z,-4.87
2023-02-16T06:05:47.459Z,-4.86
2023-02-16T06:08:15.744Z,-4.89
2023-02-16T06:10:43.996Z,-4.87
2023-02-16T06:13:12.316Z,-4.82
2023-02-16T06:15:40.593Z,-4.72
2023-02-16T06:18:11.468Z,-4.62
2023-02-16T06:20:39.834Z,-4.61
2023-02-16T06:23:09.717Z,-4.63
2023-02-16T06:25:38.328Z,-4.61
2023-02-16T06:28:06.787Z,-4.61
2023-02-16T06:30:35.647Z,-4.48
2023-02-16T06:33:04.081Z,-4.31
2023-02-16T06:35:33.798Z,-4.22
2023-02-16T06:38:02.179Z,-4.13
2023-02-16T06:40:30.636Z,-4.08
2023-02-16T06:43:02.179Z,-4.00
2023-02-16T06:45:30.621Z,-3.93
2023-02-16T06:47:59.496Z,-3.86
2023-02-16T06:50:28.877Z,-3.76
2023-02-16T06:53:03.707Z,-3.66
2023-02-16T06:55:38.132Z,-3.58
2023-02-16T06:58:07.706Z,-3.52
2023-02-16T07:00:36.355Z,-3.44
2023-02-16T07:03:04.922Z,-3.34
2023-02-16T07:05:33.225Z,-3.37
2023-02-16T07:08:05.696Z,-3.31
2023-02-16T07:10:48.915Z,-3.22
2023-02-16T07:13:18.253Z,-3.14
2023-02-16T07:15:46.886Z,-3.05
2023-02-16T07:18:15.182Z,-2.95
2023-02-16T07:20:43.658Z,-2.84
2023-02-16T07:23:15.337Z,-2.73
2023-02-16T07:25:43.905Z,-2.61
2023-02-16T07:28:12.229Z,-2.53
2023-02-16T07:30:40.981Z,-2.53
2023-02-16T07:33:09.589Z,-2.49
2023-02-16T07:35:38.733Z,-2.27
2023-02-16T07:38:08.386Z,-2.12
2023-02-16T07:40:38.947Z,-1.97
2023-02-16T07:43:08.160Z,-1.79
2023-02-16T07:45:36.804Z,-1.77
2023-02-16T07:48:07.059Z,-1.73
2023-02-16T07:50:35.690Z,-1.57
2023-02-16T07:53:04.532Z,-1.44
2023-02-16T07:55:33.571Z,-1.36
2023-02-16T07:58:04.771Z,-1.29
2023-02-16T08:00:37.027Z,-1.15
2023-02-16T08:03:06.017Z,-1.04
2023-02-16T08:05:35.723Z,-0.91
2023-02-16T08:08:03.971Z,-0.72
2023-02-16T08:10:33.973Z,-0.64
2023-02-16T08:13:05.115Z,-0.37
2023-02-16T08:15:33.561Z,-0.27
2023-02-16T08:18:02.254Z,0.06
2023-02-16T08:20:48.163Z,0.29
2023-02-16T08:23:19.270Z,0.62
2023-02-16T08:25:52.239Z,0.90
2023-02-16T08:28:22.479Z,1.18
2023-02-16T08:30:51.255Z,1.41
2023-02-16T08:33:20.698Z,1.81
2023-02-16T08:35:50.805Z,2.19
2023-02-16T08:38:20.918Z,2.16
2023-02-16T08:40:50.440Z,2.37
2023-02-16T08:43:21.148Z,2.21
2023-02-16T08:45:53.687Z,2.32
2023-02-16T08:48:26.825Z,2.53
2023-02-16T08:50:59.080Z,2.57
2023-02-16T08:53:36.092Z,2.94
2023-02-16T08:56:09.984Z,3.19
2023-02-16T08:58:38.966Z,3.46
2023-02-16T09:03:55.406Z,3.59
2023-02-16T09:06:24.477Z,3.76
2023-02-16T09:08:54.923Z,4.28
2023-02-16T09:11:25.745Z,4.44
2023-02-16T09:13:54.064Z,4.50
2023-02-16T09:16:24.948Z,4.69
2023-02-16T09:18:53.694Z,5.04
2023-02-16T09:21:25.586Z,5.07
2023-02-16T09:23:56.614Z,5.29
2023-02-16T09:26:26.956Z,5.69
2023-02-16T09:28:56.356Z,5.86
2023-02-16T09:31:31.266Z,6.03
2023-02-16T09:34:02.434Z,6.22
2023-02-16T09:36:32.061Z,6.39
2023-02-16T09:39:00.771Z,6.57
2023-02-16T09:41:34.032Z,6.79
2023-02-16T09:44:11.020Z,6.71
2023-02-16T09:46:42.846Z,6.91
2023-02-16T09:49:23.920Z,6.81
2023-02-16T09:52:00.221Z,7.05
2023-02-16T09:54:35.882Z,7.56
2023-02-16T09:57:09.226Z,7.26
2023-02-16T09:59:45.360Z,7.82
2023-02-16T10:02:32.143Z,8.14
2023-02-16T10:05:14.485Z,8.05
2023-02-16T10:07:50.325Z,8.03
2023-02-16T10:10:23.252Z,8.43
2023-02-16T10:12:55.936Z,8.40
2023-02-16T10:15:26.410Z,8.48
2023-02-16T10:17:59.366Z,8.36
2023-02-16T10:20:38.229Z,8.97
2023-02-16T10:23:15.134Z,9.58
2023-02-16T10:25:47.051Z,9.65
2023-02-16T10:28:18.326Z,9.62
2023-02-16T10:30:51.615Z,9.88
2023-02-16T10:33:29.444Z,10.08
2023-02-16T10:36:01.984Z,9.66
2023-02-16T10:38:37.671Z,10.19
2023-02-16T10:41:14.954Z,10.54
2023-02-16T10:43:46.769Z,10.96
2023-02-16T10:46:18.905Z,11.39
2023-02-16T10:48:49.076Z,11.55
2023-02-16T10:51:18.312Z,11.41
2023-02-16T10:53:48.844Z,11.70
2023-02-16T10:56:32.375Z,11.52
2023-02-16T10:59:02.322Z,11.93
2023-02-16T11:01:38.710Z,11.80
2023-02-16T11:04:15.347Z,11.83
2023-02-16T11:06:43.671Z,12.26
2023-02-16T11:09:17.977Z,12.94
2023-02-16T11:11:48.755Z,13.18
2023-02-16T11:14:23.288Z,13.11
2023-02-16T11:17:22.464Z,13.39
2023-02-16T11:19:56.983Z,13.32
2023-02-16T11:22:32.579Z,13.67
2023-02-16T11:25:22.216Z,13.78
2023-02-16T11:28:16.576Z,13.79
2023-02-16T11:30:48.308Z,14.44
2023-02-16T11:33:24.728Z,15.00
2023-02-16T11:35:57.397Z,14.88
2023-02-16T11:38:32.419Z,15.33
2023-02-16T11:43:58.053Z,15.16
2023-02-16T11:46:26.993Z,15.66
2023-02-16T11:48:55.572Z,15.27
2023-02-16T11:51:46.741Z,15.00
2023-02-16T11:54:18.811Z,14.87
2023-02-16T11:57:03.117Z,15.03
2023-02-16T11:59:36.361Z,15.35
2023-02-16T12:02:18.936Z,15.14
2023-02-16T12:04:59.556Z,15.47
2023-02-16T12:07:35.919Z,15.64
2023-02-16T12:10:12.460Z,14.93
2023-02-16T12:12:51.239Z,15.29
2023-02-16T12:15:24.866Z,15.63
2023-02-16T12:18:16.465Z,15.90
2023-02-16T12:20:50.658Z,16.37
2023-02-16T12:23:30.292Z,16.02
2023-02-16T12:26:12.438Z,16.52
2023-02-16T12:28:44.371Z,16.24
2023-02-16T12:31:17.529Z,16.00
2023-02-16T12:33:52.455Z,16.01
2023-02-16T12:36:50.873Z,16.20
2023-02-16T12:39:26.696Z,16.22
2023-02-16T12:42:13.465Z,16.50
2023-02-16T12:44:46.435Z,16.82
2023-02-16T12:47:22.004Z,15.72
2023-02-16T12:49:54.794Z,15.62
2023-02-16T12:52:30.812Z,16.08
2023-02-16T12:55:09.091Z,15.51
2023-02-16T12:57:38.025Z,15.75
2023-02-16T13:00:17.844Z,16.13
2023-02-16T13:02:49.668Z,15.32
2023-02-16T13:05:23.476Z,15.93
2023-02-16T13:07:55.786Z,16.17
2023-02-16T13:10:28.882Z,16.56
2023-02-16T13:13:01.615Z,16.40
2023-02-16T13:15:34.626Z,16.40
2023-02-16T13:18:05.845Z,16.67
2023-02-16T13:20:34.296Z,16.48
2023-02-16T13:23:26.381Z,16.95
2023-02-16T13:26:26.492Z,17.01
2023-02-16T13:29:26.339Z,17.17
2023-02-16T13:32:06.648Z,17.57
2023-02-16T13:34:48.153Z,17.51
2023-02-16T13:37:25.336Z,17.83
2023-02-16T13:40:14.165Z,16.72
2023-02-16T13:42:55.671Z,16.96
2023-02-16T13:45:27.634Z,16.94
2023-02-16T13:47:57.670Z,17.32
2023-02-16T13:50:29.368Z,17.44
2023-02-16T13:52:59.152Z,16.61
2023-02-16T13:55:31.850Z,16.36
2023-02-16T13:58:05.810Z,16.65
2023-02-16T14:00:37.110Z,16.58
2023-02-16T14:03:39.435Z,16.80
2023-02-16T14:06:42.876Z,17.31
2023-02-16T14:09:34.735Z,17.47
2023-02-16T14:12:05.876Z,16.79
2023-02-16T14:14:37.821Z,17.06
2023-02-16T14:17:24.140Z,16.81
2023-02-16T14:19:54.626Z,16.48
2023-02-16T14:22:25.254Z,16.26
2023-02-16T14:24:54.364Z,16.53
2023-02-16T14:27:43.561Z,16.07
2023-02-16T14:30:32.625Z,15.04
2023-02-16T14:33:05.255Z,14.26
2023-02-16T14:35:36.004Z,13.81
2023-02-16T14:38:05.409Z,14.07
2023-02-16T14:40:53.069Z,13.91
2023-02-16T14:43:28.272Z,13.70
2023-02-16T14:46:08.753Z,13.63
2023-02-16T14:49:15.005Z,13.06
2023-02-16T14:52:17.117Z,12.67
2023-02-16T14:55:12.708Z,12.58
2023-02-16T14:57:45.871Z,12.31
2023-02-16T15:00:19.910Z,12.09
2023-02-16T15:02:59.224Z,11.91
2023-02-16T15:05:32.498Z,11.88
2023-02-16T15:08:05.719Z,11.67
2023-02-16T15:10:34.023Z,11.64
2023-02-16T15:13:02.374Z,11.52
2023-02-16T15:15:42.924Z,11.50
2023-02-16T15:18:17.843Z,11.61
2023-02-16T15:20:49.428Z,11.59
2023-02-16T15:23:21.012Z,11.49
2023-02-16T15:26:00.302Z,11.39
2023-02-16T15:28:30.931Z,11.16
2023-02-16T15:31:00.637Z,11.09
2023-02-16T15:33:38.617Z,11.06
2023-02-16T15:36:13.482Z,10.91
2023-02-16T15:38:44.352Z,10.79
2023-02-16T15:41:15.730Z,10.74
2023-02-16T15:43:47.688Z,10.55
2023-02-16T15:46:23.061Z,10.51
2023-02-16T15:48:53.252Z,10.50
2023-02-16T15:51:26.748Z,10.43
2023-02-16T15:53:57.705Z,10.36
2023-02-16T15:56:34.925Z,10.26
2023-02-16T15:59:05.162Z,10.12
2023-02-16T16:01:35.525Z,10.02
2023-02-16T16:04:20.453Z,9.91
2023-02-16T16:06:51.788Z,9.78
2023-02-16T16:09:25.704Z,9.61
2023-02-16T16:11:56.255Z,9.43
2023-02-16T16:14:26.506Z,9.28
2023-02-16T16:16:55.617Z,9.17
2023-02-16T16:19:33.819Z,9.03
2023-02-16T16:22:04.605Z,8.95
2023-02-16T16:24:38.331Z,8.84
2023-02-16T16:27:09.877Z,8.75
2023-02-16T16:29:41.495Z,8.66
2023-02-16T16:32:22.055Z,8.50
2023-02-16T16:34:52.613Z,8.36
2023-02-16T16:37:28.562Z,8.23
2023-02-16T16:40:06.665Z,8.05
2023-02-16T16:42:39.473Z,7.91
2023-02-16T16:45:34.979Z,7.79
2023-02-16T16:48:10.435Z,7.77
2023-02-16T16:50:41.203Z,7.69
2023-02-16T16:53:41.586Z,7.60
2023-02-16T16:56:12.381Z,7.56
2023-02-16T16:58:42.087Z,7.40
2023-02-16T17:01:14.767Z,7.25
2023-02-16T17:03:44.311Z,7.12
2023-02-16T17:06:15.776Z,7.23
2023-02-16T17:08:45.291Z,7.00
2023-02-16T17:11:19.098Z,6.83
2023-02-16T17:13:48.474Z,6.73
2023-02-16T17:16:21.938Z,6.56
2023-02-16T17:18:52.565Z,6.37
2023-02-16T17:21:29.773Z,6.20
2023-02-16T17:24:00.929Z,6.07
2023-02-16T17:26:29.869Z,5.96
2023-02-16T17:28:59.558Z,6.02
2023-02-16T17:31:29.167Z,6.01
2023-02-16T17:33:59.140Z,5.82
2023-02-16T17:36:32.109Z,5.69
2023-02-16T17:39:05.638Z,5.78
2023-02-16T17:41:36.466Z,5.86
2023-02-16T17:44:07.444Z,5.65
2023-02-16T17:46:37.509Z,5.44
2023-02-16T17:49:07.431Z,5.29
2023-02-16T17:51:38.061Z,5.59
2023-02-16T17:54:10.984Z,5.31
2023-02-16T17:56:42.190Z,5.27
2023-02-16T17:59:15.898Z,5.15
2023-02-16T18:01:46.112Z,5.04
2023-02-16T18:04:19.228Z,5.02
2023-02-16T18:06:52.870Z,4.83
2023-02-16T18:09:24.690Z,4.59
2023-02-16T18:11:56.141Z,4.54
2023-02-16T18:14:26.017Z,4.43
2023-02-16T18:16:55.162Z,4.39
2023-02-16T18:19:25.631Z,4.12
2023-02-16T18:21:57.624Z,4.59
2023-02-16T18:24:28.095Z,4.61
2023-02-16T18:26:58.516Z,4.68
2023-02-16T18:29:28.965Z,4.21
2023-02-16T18:32:05.207Z,4.13
2023-02-16T18:34:35.629Z,3.93
2023-02-16T18:37:08.517Z,3.64
2023-02-16T18:39:41.329Z,3.71
2023-02-16T18:42:12.452Z,3.69
2023-02-16T18:44:41.838Z,3.62
2023-02-16T18:47:11.473Z,3.40
2023-02-16T18:49:44.325Z,3.73
2023-02-16T18:52:16.606Z,3.80
2023-02-16T18:54:48.047Z,3.79
2023-02-16T18:57:17.973Z,3.71
2023-02-16T18:59:49.266Z,3.83
2023-02-16T19:02:20.752Z,3.32
2023-02-16T19:04:52.887Z,3.18
2023-02-16T19:07:25.924Z,3.30
2023-02-16T19:09:57.465Z,3.06
2023-02-16T19:12:28.095Z,3.08
2023-02-16T19:14:58.861Z,2.86
2023-02-16T19:17:28.860Z,2.78
2023-02-16T19:20:00.216Z,2.81
2023-02-16T19:22:34.523Z,2.70
2023-02-16T19:25:09.553Z,2.55
2023-02-16T19:27:40.283Z,2.62
2023-02-16T19:30:13.922Z,2.73
2023-02-16T19:32:44.710Z,2.81
2023-02-16T19:35:15.478Z,2.66
2023-02-16T19:37:48.317Z,2.46
2023-02-16T19:40:20.874Z,2.45
2023-02-16T19:42:51.820Z,2.22
2023-02-16T19:45:24.081Z,2.17
2023-02-16T19:47:56.647Z,2.22
2023-02-16T19:50:28.258Z,2.51
2023-02-16T19:53:01.858Z,2.47
2023-02-16T19:55:34.928Z,2.48
2023-02-16T19:58:08.900Z,2.42
2023-02-16T20:00:43.192Z,1.96
2023-02-16T20:03:16.119Z,1.86
2023-02-16T20:05:46.516Z,1.71
2023-02-16T20:08:20.541Z,1.54
2023-02-16T20:10:55.719Z,1.41
2023-02-16T20:13:26.939Z,1.31
2023-02-16T20:15:57.651Z,1.35
2023-02-16T20:18:28.941Z,1.44
2023-02-16T20:21:03.583Z,1.59
2023-02-16T20:23:38.123Z,1.53
2023-02-16T20:26:10.982Z,1.49
2023-02-16T20:28:41.966Z,1.29
2023-02-16T20:31:15.999Z,1.23
2023-02-16T20:33:46.543Z,1.10
2023-02-16T20:36:16.452Z,1.50
2023-02-16T20:38:52.785Z,1.57
2023-02-16T20:41:24.335Z,1.21
2023-02-16T20:43:53.888Z,1.35
2023-02-16T20:46:25.554Z,1.52
2023-02-16T20:48:56.006Z,1.48
2023-02-16T20:51:27.367Z,1.31
2023-02-16T20:54:01.506Z,1.15
2023-02-16T20:56:33.959Z,1.08
2023-02-16T20:59:05.489Z,0.89
2023-02-16T21:01:39.201Z,0.78
2023-02-16T21:04:11.253Z,0.90
2023-02-16T21:06:41.337Z,0.92
2023-02-16T21:09:13.605Z,1.09
2023-02-16T21:11:47.253Z,1.22
2023-02-16T21:14:17.166Z,0.84
2023-02-16T21:16:47.181Z,0.62
2023-02-16T21:19:23.354Z,0.46
2023-02-16T21:21:55.589Z,0.37
2023-02-16T21:24:27.099Z,0.50
2023-02-16T21:26:56.058Z,0.38
2023-02-16T21:29:25.541Z,0.44
2023-02-16T21:31:56.009Z,0.40
2023-02-16T21:34:25.477Z,0.24
2023-02-16T21:36:55.741Z,0.10
2023-02-16T21:39:46.843Z,0.13
2023-02-16T21:42:14.936Z,0.08
2023-02-16T21:44:45.193Z,0.21
2023-02-16T21:47:32.952Z,0.25
2023-02-16T21:50:01.440Z,0.36
2023-02-16T21:52:31.213Z,0.27
2023-02-16T21:55:18.692Z,0.16
2023-02-16T21:57:47.753Z,0.29
2023-02-16T22:00:17.316Z,0.45
2023-02-16T22:02:45.984Z,0.36
2023-02-16T22:05:14.719Z,0.24
2023-02-16T22:07:43.479Z,0.18
2023-02-16T22:10:13.553Z,0.11
2023-02-16T22:12:41.914Z,0.29
2023-02-16T22:15:10.518Z,0.41
2023-02-16T22:17:39.259Z,0.36
2023-02-16T22:20:10.071Z,0.46
2023-02-16T22:22:38.474Z,0.54
2023-02-16T22:25:07.248Z,0.43
2023-02-16T22:27:37.387Z,0.56
2023-02-16T22:30:06.903Z,0.55
2023-02-16T22:32:35.166Z,0.58
2023-02-16T22:35:03.383Z,0.62
2023-02-16T22:37:33.216Z,0.90
2023-02-16T22:40:01.470Z,0.80
2023-02-16T22:42:31.594Z,0.79
2023-02-16T22:45:01.295Z,0.71
2023-02-16T22:47:30.436Z,0.66
2023-02-16T22:49:58.661Z,0.57
2023-02-16T22:52:27.180Z,0.70
2023-02-16T22:54:55.530Z,0.68
2023-02-16T22:57:23.765Z,0.62
2023-02-16T22:59:51.970Z,0.78
2023-02-16T23:02:21.665Z,0.88
2023-02-16T23:04:49.899Z,0.85
2023-02-16T23:07:18.144Z,0.81
2023-02-16T23:12:50.627Z,0.61
2023-02-16T23:15:47.050Z,0.60
2023-02-16T23:18:16.700Z,0.52
2023-02-16T23:20:44.963Z,0.44
2023-02-16T23:23:13.184Z,0.41
2023-02-16T23:25:45.514Z,0.32
2023-02-16T23:28:14.070Z,0.26
2023-02-16T23:30:44.234Z,0.21
2023-02-16T23:33:13.009Z,0.16
2023-02-16T23:35:43.376Z,0.18
2023-02-16T23:38:14.877Z,0.17
2023-02-16T23:40:43.247Z,0.05
2023-02-16T23:43:11.682Z,-0.06
2023-02-16T23:45:40.389Z,-0.06
2023-02-16T23:48:08.594Z,0.11
2023-02-16T23:50:36.849Z,0.40
2023-02-16T23:53:06.477Z,0.22
2023-02-16T23:55:34.702Z,0.27
2023-02-16T23:58:02.991Z,0.14
